sensor_id;sensor_type;location;lat;lon;timestamp;temperature;humidity
80216;DHT22;69532;37.974;23.708;2023-04-25T00:01:25;22.20;41.90
80216;DHT22;69532;37.974;23.708;2023-04-25T00:03:50;22.20;41.30
80216;DHT22;69532;37.974;23.708;2023-04-25T00:06:16;22.20;41.50
80216;DHT22;69532;37.974;23.708;2023-04-25T00:08:43;22.20;41.60
80216;DHT22;69532;37.974;23.708;2023-04-25T00:11:08;22.30;40.90
80216;DHT22;69532;37.974;23.708;2023-04-25T00:13:34;22.30;41.00
80216;DHT22;69532;37.974;23.708;2023-04-25T00:16:00;22.30;40.50
80216;DHT22;69532;37.974;23.708;2023-04-25T00:18:28;22.40;41.60
80216;DHT22;69532;37.974;23.708;2023-04-25T00:20:55;22.40;41.50
80216;DHT22;69532;37.974;23.708;2023-04-25T00:23:21;22.50;40.80
80216;DHT22;69532;37.974;23.708;2023-04-25T00:25:48;22.50;40.70
80216;DHT22;69532;37.974;23.708;2023-04-25T00:28:14;22.60;39.30
80216;DHT22;69532;37.974;23.708;2023-04-25T00:30:41;22.60;38.80
80216;DHT22;69532;37.974;23.708;2023-04-25T00:33:07;22.60;39.00
80216;DHT22;69532;37.974;23.708;2023-04-25T00:35:33;22.50;38.50
80216;DHT22;69532;37.974;23.708;2023-04-25T00:38:00;22.40;39.00
80216;DHT22;69532;37.974;23.708;2023-04-25T00:40:26;22.40;39.10
80216;DHT22;69532;37.974;23.708;2023-04-25T00:42:52;22.30;39.10
80216;DHT22;69532;37.974;23.708;2023-04-25T00:45:18;22.30;39.70
80216;DHT22;69532;37.974;23.708;2023-04-25T00:47:45;22.30;39.30
80216;DHT22;69532;37.974;23.708;2023-04-25T00:50:11;22.30;38.90
80216;DHT22;69532;37.974;23.708;2023-04-25T00:52:41;22.40;39.90
80216;DHT22;69532;37.974;23.708;2023-04-25T00:55:08;22.30;39.30
80216;DHT22;69532;37.974;23.708;2023-04-25T00:57:35;22.30;39.10
80216;DHT22;69532;37.974;23.708;2023-04-25T01:00:01;22.30;38.50
80216;DHT22;69532;37.974;23.708;2023-04-25T01:02:28;22.30;39.90
80216;DHT22;69532;37.974;23.708;2023-04-25T01:04:54;22.40;39.00
80216;DHT22;69532;37.974;23.708;2023-04-25T01:07:20;22.30;38.60
80216;DHT22;69532;37.974;23.708;2023-04-25T01:09:46;22.30;38.00
80216;DHT22;69532;37.974;23.708;2023-04-25T01:12:12;22.30;38.00
80216;DHT22;69532;37.974;23.708;2023-04-25T01:14:38;22.30;38.10
80216;DHT22;69532;37.974;23.708;2023-04-25T01:17:04;22.20;38.00
80216;DHT22;69532;37.974;23.708;2023-04-25T01:19:30;22.30;38.20
80216;DHT22;69532;37.974;23.708;2023-04-25T01:21:56;22.20;38.30
80216;DHT22;69532;37.974;23.708;2023-04-25T01:24:22;22.20;38.10
80216;DHT22;69532;37.974;23.708;2023-04-25T01:26:48;22.20;38.30
80216;DHT22;69532;37.974;23.708;2023-04-25T01:29:19;22.10;38.20
80216;DHT22;69532;37.974;23.708;2023-04-25T01:31:45;22.10;38.20
80216;DHT22;69532;37.974;23.708;2023-04-25T01:34:12;22.10;38.70
80216;DHT22;69532;37.974;23.708;2023-04-25T01:36:39;22.00;38.30
80216;DHT22;69532;37.974;23.708;2023-04-25T01:39:05;22.00;38.10
80216;DHT22;69532;37.974;23.708;2023-04-25T01:41:32;22.00;38.20
80216;DHT22;69532;37.974;23.708;2023-04-25T01:43:58;22.00;38.50
80216;DHT22;69532;37.974;23.708;2023-04-25T01:46:23;21.90;38.50
80216;DHT22;69532;37.974;23.708;2023-04-25T01:48:49;21.90;38.00
80216;DHT22;69532;37.974;23.708;2023-04-25T01:51:15;21.90;38.40
80216;DHT22;69532;37.974;23.708;2023-04-25T01:53:42;21.90;38.20
80216;DHT22;69532;37.974;23.708;2023-04-25T01:56:08;21.90;38.30
80216;DHT22;69532;37.974;23.708;2023-04-25T01:58:33;21.90;37.70
80216;DHT22;69532;37.974;23.708;2023-04-25T02:00:59;22.00;37.60
80216;DHT22;69532;37.974;23.708;2023-04-25T02:03:25;22.00;37.90
80216;DHT22;69532;37.974;23.708;2023-04-25T02:05:51;22.00;37.30
80216;DHT22;69532;37.974;23.708;2023-04-25T02:08:17;22.00;37.80
80216;DHT22;69532;37.974;23.708;2023-04-25T02:10:43;22.00;37.00
80216;DHT22;69532;37.974;23.708;2023-04-25T02:13:09;21.90;37.10
80216;DHT22;69532;37.974;23.708;2023-04-25T02:15:35;21.90;37.20
80216;DHT22;69532;37.974;23.708;2023-04-25T02:18:01;22.00;37.00
80216;DHT22;69532;37.974;23.708;2023-04-25T02:20:28;21.90;36.20
80216;DHT22;69532;37.974;23.708;2023-04-25T02:22:54;21.90;36.60
80216;DHT22;69532;37.974;23.708;2023-04-25T02:25:20;21.90;36.90
80216;DHT22;69532;37.974;23.708;2023-04-25T02:27:46;21.90;36.70
80216;DHT22;69532;37.974;23.708;2023-04-25T02:30:12;21.90;36.80
80216;DHT22;69532;37.974;23.708;2023-04-25T02:32:39;21.90;36.30
80216;DHT22;69532;37.974;23.708;2023-04-25T02:35:05;21.90;36.80
80216;DHT22;69532;37.974;23.708;2023-04-25T02:37:32;21.90;36.80
80216;DHT22;69532;37.974;23.708;2023-04-25T02:39:58;21.90;36.50
80216;DHT22;69532;37.974;23.708;2023-04-25T02:42:24;21.80;36.80
80216;DHT22;69532;37.974;23.708;2023-04-25T02:44:50;21.90;36.80
80216;DHT22;69532;37.974;23.708;2023-04-25T02:47:15;21.80;36.80
80216;DHT22;69532;37.974;23.708;2023-04-25T02:49:41;21.80;36.70
80216;DHT22;69532;37.974;23.708;2023-04-25T02:52:07;21.80;37.00
80216;DHT22;69532;37.974;23.708;2023-04-25T02:54:32;21.80;37.00
80216;DHT22;69532;37.974;23.708;2023-04-25T02:56:58;21.80;37.00
80216;DHT22;69532;37.974;23.708;2023-04-25T02:59:24;21.80;37.10
80216;DHT22;69532;37.974;23.708;2023-04-25T03:01:50;21.70;37.10
80216;DHT22;69532;37.974;23.708;2023-04-25T03:04:15;21.80;37.20
80216;DHT22;69532;37.974;23.708;2023-04-25T03:06:41;21.70;37.50
80216;DHT22;69532;37.974;23.708;2023-04-25T03:09:07;21.60;37.50
80216;DHT22;69532;37.974;23.708;2023-04-25T03:11:33;21.60;37.60
80216;DHT22;69532;37.974;23.708;2023-04-25T03:13:58;21.60;37.70
80216;DHT22;69532;37.974;23.708;2023-04-25T03:16:24;21.60;37.70
80216;DHT22;69532;37.974;23.708;2023-04-25T03:18:50;21.60;38.00
80216;DHT22;69532;37.974;23.708;2023-04-25T03:21:16;21.50;38.10
80216;DHT22;69532;37.974;23.708;2023-04-25T03:23:42;21.50;38.00
80216;DHT22;69532;37.974;23.708;2023-04-25T03:26:08;21.50;38.10
80216;DHT22;69532;37.974;23.708;2023-04-25T03:28:33;21.50;38.70
80216;DHT22;69532;37.974;23.708;2023-04-25T03:30:59;21.50;39.40
80216;DHT22;69532;37.974;23.708;2023-04-25T03:33:25;21.50;38.50
80216;DHT22;69532;37.974;23.708;2023-04-25T03:35:51;21.50;38.70
80216;DHT22;69532;37.974;23.708;2023-04-25T03:38:17;21.50;38.80
80216;DHT22;69532;37.974;23.708;2023-04-25T03:40:43;21.40;38.90
80216;DHT22;69532;37.974;23.708;2023-04-25T03:43:08;21.50;39.00
80216;DHT22;69532;37.974;23.708;2023-04-25T03:45:34;21.40;39.00
80216;DHT22;69532;37.974;23.708;2023-04-25T03:48:00;21.40;39.00
80216;DHT22;69532;37.974;23.708;2023-04-25T03:50:26;21.40;39.10
80216;DHT22;69532;37.974;23.708;2023-04-25T03:52:51;21.40;39.20
80216;DHT22;69532;37.974;23.708;2023-04-25T03:55:17;21.40;39.20
80216;DHT22;69532;37.974;23.708;2023-04-25T03:57:43;21.40;40.20
80216;DHT22;69532;37.974;23.708;2023-04-25T04:00:09;21.40;39.30
80216;DHT22;69532;37.974;23.708;2023-04-25T04:02:35;21.40;39.50
80216;DHT22;69532;37.974;23.708;2023-04-25T04:05:03;21.40;39.70
80216;DHT22;69532;37.974;23.708;2023-04-25T04:07:29;21.40;40.00
80216;DHT22;69532;37.974;23.708;2023-04-25T04:09:57;21.50;39.90
80216;DHT22;69532;37.974;23.708;2023-04-25T04:12:23;21.70;39.80
80216;DHT22;69532;37.974;23.708;2023-04-25T04:14:48;21.80;40.80
80216;DHT22;69532;37.974;23.708;2023-04-25T04:17:14;22.00;39.30
80216;DHT22;69532;37.974;23.708;2023-04-25T04:19:40;22.20;38.80
80216;DHT22;69532;37.974;23.708;2023-04-25T04:22:05;22.30;38.90
80216;DHT22;69532;37.974;23.708;2023-04-25T04:24:31;22.40;38.70
80216;DHT22;69532;37.974;23.708;2023-04-25T04:26:58;22.50;38.50
80216;DHT22;69532;37.974;23.708;2023-04-25T04:29:24;22.70;38.20
80216;DHT22;69532;37.974;23.708;2023-04-25T04:31:51;22.80;38.00
80216;DHT22;69532;37.974;23.708;2023-04-25T04:34:18;22.90;37.70
80216;DHT22;69532;37.974;23.708;2023-04-25T04:36:44;23.00;37.10
80216;DHT22;69532;37.974;23.708;2023-04-25T04:39:12;23.10;37.10
80216;DHT22;69532;37.974;23.708;2023-04-25T04:41:38;23.20;37.20
80216;DHT22;69532;37.974;23.708;2023-04-25T04:44:05;23.20;36.90
80216;DHT22;69532;37.974;23.708;2023-04-25T04:46:32;23.40;36.70
80216;DHT22;69532;37.974;23.708;2023-04-25T04:49:04;23.40;36.30
80216;DHT22;69532;37.974;23.708;2023-04-25T04:51:30;23.60;36.30
80216;DHT22;69532;37.974;23.708;2023-04-25T04:53:56;23.60;36.00
80216;DHT22;69532;37.974;23.708;2023-04-25T04:56:24;23.70;36.10
80216;DHT22;69532;37.974;23.708;2023-04-25T04:58:51;23.70;35.90
80216;DHT22;69532;37.974;23.708;2023-04-25T05:01:17;23.80;35.60
80216;DHT22;69532;37.974;23.708;2023-04-25T05:03:43;23.90;35.40
80216;DHT22;69532;37.974;23.708;2023-04-25T05:06:09;24.00;35.30
80216;DHT22;69532;37.974;23.708;2023-04-25T05:08:36;24.00;35.00
80216;DHT22;69532;37.974;23.708;2023-04-25T05:11:01;24.10;34.90
80216;DHT22;69532;37.974;23.708;2023-04-25T05:13:27;24.20;34.70
80216;DHT22;69532;37.974;23.708;2023-04-25T05:15:53;24.30;34.40
80216;DHT22;69532;37.974;23.708;2023-04-25T05:18:19;24.30;34.20
80216;DHT22;69532;37.974;23.708;2023-04-25T05:20:44;24.40;34.00
80216;DHT22;69532;37.974;23.708;2023-04-25T05:23:10;24.50;33.60
80216;DHT22;69532;37.974;23.708;2023-04-25T05:25:36;24.50;33.00
80216;DHT22;69532;37.974;23.708;2023-04-25T05:28:02;24.60;32.60
80216;DHT22;69532;37.974;23.708;2023-04-25T05:30:27;24.60;32.30
80216;DHT22;69532;37.974;23.708;2023-04-25T05:32:53;24.60;32.00
80216;DHT22;69532;37.974;23.708;2023-04-25T05:35:19;24.70;31.90
80216;DHT22;69532;37.974;23.708;2023-04-25T05:37:45;24.70;31.50
80216;DHT22;69532;37.974;23.708;2023-04-25T05:40:10;24.70;31.20
80216;DHT22;69532;37.974;23.708;2023-04-25T05:42:36;24.70;31.10
80216;DHT22;69532;37.974;23.708;2023-04-25T05:45:02;24.70;31.10
80216;DHT22;69532;37.974;23.708;2023-04-25T05:47:28;24.70;30.70
80216;DHT22;69532;37.974;23.708;2023-04-25T05:49:54;24.80;30.60
80216;DHT22;69532;37.974;23.708;2023-04-25T05:52:19;24.80;30.60
80216;DHT22;69532;37.974;23.708;2023-04-25T05:54:45;24.80;30.40
80216;DHT22;69532;37.974;23.708;2023-04-25T05:57:24;24.80;30.40
80216;DHT22;69532;37.974;23.708;2023-04-25T05:59:51;24.80;30.20
80216;DHT22;69532;37.974;23.708;2023-04-25T06:02:17;24.90;30.20
80216;DHT22;69532;37.974;23.708;2023-04-25T06:04:43;24.90;30.00
80216;DHT22;69532;37.974;23.708;2023-04-25T06:07:09;24.90;30.00
80216;DHT22;69532;37.974;23.708;2023-04-25T06:09:35;24.90;30.00
80216;DHT22;69532;37.974;23.708;2023-04-25T06:12:01;24.90;29.90
80216;DHT22;69532;37.974;23.708;2023-04-25T06:14:27;24.90;29.80
80216;DHT22;69532;37.974;23.708;2023-04-25T06:16:53;24.90;29.80
80216;DHT22;69532;37.974;23.708;2023-04-25T06:19:20;24.90;29.70
80216;DHT22;69532;37.974;23.708;2023-04-25T06:21:45;24.90;29.70
80216;DHT22;69532;37.974;23.708;2023-04-25T06:24:12;24.90;29.60
80216;DHT22;69532;37.974;23.708;2023-04-25T06:26:37;24.90;29.60
80216;DHT22;69532;37.974;23.708;2023-04-25T06:29:03;24.90;29.60
80216;DHT22;69532;37.974;23.708;2023-04-25T06:31:29;25.00;29.60
80216;DHT22;69532;37.974;23.708;2023-04-25T06:33:54;25.00;29.50
80216;DHT22;69532;37.974;23.708;2023-04-25T06:36:21;25.00;29.40
80216;DHT22;69532;37.974;23.708;2023-04-25T06:38:51;25.00;29.40
80216;DHT22;69532;37.974;23.708;2023-04-25T06:41:20;25.00;29.40
80216;DHT22;69532;37.974;23.708;2023-04-25T06:43:46;25.10;29.40
80216;DHT22;69532;37.974;23.708;2023-04-25T06:46:12;25.10;29.40
80216;DHT22;69532;37.974;23.708;2023-04-25T06:48:38;25.10;29.30
80216;DHT22;69532;37.974;23.708;2023-04-25T06:51:04;25.10;29.20
80216;DHT22;69532;37.974;23.708;2023-04-25T06:53:29;25.10;29.10
80216;DHT22;69532;37.974;23.708;2023-04-25T06:55:55;25.10;29.20
80216;DHT22;69532;37.974;23.708;2023-04-25T06:58:21;25.00;29.30
80216;DHT22;69532;37.974;23.708;2023-04-25T07:00:46;25.10;29.40
80216;DHT22;69532;37.974;23.708;2023-04-25T07:03:13;25.10;29.30
80216;DHT22;69532;37.974;23.708;2023-04-25T07:05:38;25.10;28.90
80216;DHT22;69532;37.974;23.708;2023-04-25T07:08:04;25.10;28.80
80216;DHT22;69532;37.974;23.708;2023-04-25T07:10:30;25.10;28.90
80216;DHT22;69532;37.974;23.708;2023-04-25T07:12:56;25.10;28.60
80216;DHT22;69532;37.974;23.708;2023-04-25T07:15:21;25.20;28.70
80216;DHT22;69532;37.974;23.708;2023-04-25T07:17:47;25.20;28.70
80216;DHT22;69532;37.974;23.708;2023-04-25T07:20:13;25.10;28.70
80216;DHT22;69532;37.974;23.708;2023-04-25T07:22:38;25.10;29.00
80216;DHT22;69532;37.974;23.708;2023-04-25T07:25:05;25.10;29.10
80216;DHT22;69532;37.974;23.708;2023-04-25T07:27:31;25.20;29.20
80216;DHT22;69532;37.974;23.708;2023-04-25T07:29:57;25.30;29.30
80216;DHT22;69532;37.974;23.708;2023-04-25T07:32:23;25.30;29.30
80216;DHT22;69532;37.974;23.708;2023-04-25T07:34:49;25.30;29.40
80216;DHT22;69532;37.974;23.708;2023-04-25T07:37:15;25.30;29.40
80216;DHT22;69532;37.974;23.708;2023-04-25T07:39:41;25.30;29.40
80216;DHT22;69532;37.974;23.708;2023-04-25T07:42:07;25.30;29.40
80216;DHT22;69532;37.974;23.708;2023-04-25T07:44:36;25.40;29.30
80216;DHT22;69532;37.974;23.708;2023-04-25T07:47:05;25.40;28.90
80216;DHT22;69532;37.974;23.708;2023-04-25T07:49:33;25.40;29.00
80216;DHT22;69532;37.974;23.708;2023-04-25T07:52:00;25.40;29.00
80216;DHT22;69532;37.974;23.708;2023-04-25T07:54:26;25.30;29.00
80216;DHT22;69532;37.974;23.708;2023-04-25T07:56:52;25.40;29.20
80216;DHT22;69532;37.974;23.708;2023-04-25T07:59:17;25.30;29.20
80216;DHT22;69532;37.974;23.708;2023-04-25T08:01:43;25.30;29.40
80216;DHT22;69532;37.974;23.708;2023-04-25T08:04:09;25.30;29.40
80216;DHT22;69532;37.974;23.708;2023-04-25T08:06:35;25.30;29.40
80216;DHT22;69532;37.974;23.708;2023-04-25T08:09:02;25.30;29.40
80216;DHT22;69532;37.974;23.708;2023-04-25T08:11:28;25.30;29.50
80216;DHT22;69532;37.974;23.708;2023-04-25T08:13:54;25.40;29.50
80216;DHT22;69532;37.974;23.708;2023-04-25T08:16:20;25.40;29.50
80216;DHT22;69532;37.974;23.708;2023-04-25T08:18:47;25.30;29.50
80216;DHT22;69532;37.974;23.708;2023-04-25T08:21:13;25.30;29.50
80216;DHT22;69532;37.974;23.708;2023-04-25T08:23:39;25.40;29.50
80216;DHT22;69532;37.974;23.708;2023-04-25T08:26:05;25.40;29.40
80216;DHT22;69532;37.974;23.708;2023-04-25T08:28:32;25.40;29.40
80216;DHT22;69532;37.974;23.708;2023-04-25T08:30:58;25.40;29.40
80216;DHT22;69532;37.974;23.708;2023-04-25T08:33:23;25.40;29.50
80216;DHT22;69532;37.974;23.708;2023-04-25T08:35:50;25.40;29.40
80216;DHT22;69532;37.974;23.708;2023-04-25T08:38:17;25.40;29.30
80216;DHT22;69532;37.974;23.708;2023-04-25T08:40:43;25.40;29.30
80216;DHT22;69532;37.974;23.708;2023-04-25T08:43:13;25.50;29.30
80216;DHT22;69532;37.974;23.708;2023-04-25T08:45:41;25.50;29.20
80216;DHT22;69532;37.974;23.708;2023-04-25T08:48:15;25.50;29.20
80216;DHT22;69532;37.974;23.708;2023-04-25T08:50:48;25.50;29.20
80216;DHT22;69532;37.974;23.708;2023-04-25T08:53:16;25.40;29.30
80216;DHT22;69532;37.974;23.708;2023-04-25T08:55:46;25.50;29.50
80216;DHT22;69532;37.974;23.708;2023-04-25T08:58:13;25.50;29.60
80216;DHT22;69532;37.974;23.708;2023-04-25T09:00:40;25.50;29.50
80216;DHT22;69532;37.974;23.708;2023-04-25T09:03:05;25.50;29.90
80216;DHT22;69532;37.974;23.708;2023-04-25T09:05:33;25.50;29.30
80216;DHT22;69532;37.974;23.708;2023-04-25T09:08:00;25.40;29.30
80216;DHT22;69532;37.974;23.708;2023-04-25T09:10:26;25.50;29.30
80216;DHT22;69532;37.974;23.708;2023-04-25T09:13:11;25.40;29.20
80216;DHT22;69532;37.974;23.708;2023-04-25T09:15:48;25.50;29.40
80216;DHT22;69532;37.974;23.708;2023-04-25T09:18:22;25.40;29.30
80216;DHT22;69532;37.974;23.708;2023-04-25T09:20:52;25.50;29.30
80216;DHT22;69532;37.974;23.708;2023-04-25T09:23:19;25.40;29.20
80216;DHT22;69532;37.974;23.708;2023-04-25T09:25:48;25.50;29.20
80216;DHT22;69532;37.974;23.708;2023-04-25T09:28:15;25.50;29.20
80216;DHT22;69532;37.974;23.708;2023-04-25T09:30:41;25.50;29.20
80216;DHT22;69532;37.974;23.708;2023-04-25T09:33:10;25.40;29.20
80216;DHT22;69532;37.974;23.708;2023-04-25T09:35:46;25.40;29.30
80216;DHT22;69532;37.974;23.708;2023-04-25T09:38:18;25.50;29.40
80216;DHT22;69532;37.974;23.708;2023-04-25T09:40:46;25.50;29.40
80216;DHT22;69532;37.974;23.708;2023-04-25T09:43:23;25.50;29.40
80216;DHT22;69532;37.974;23.708;2023-04-25T09:45:50;25.50;29.60
80216;DHT22;69532;37.974;23.708;2023-04-25T09:48:18;25.50;29.80
80216;DHT22;69532;37.974;23.708;2023-04-25T09:50:46;25.50;29.70
80216;DHT22;69532;37.974;23.708;2023-04-25T09:53:30;25.50;29.70
80216;DHT22;69532;37.974;23.708;2023-04-25T09:55:59;25.50;30.00
80216;DHT22;69532;37.974;23.708;2023-04-25T09:58:29;25.50;29.50
80216;DHT22;69532;37.974;23.708;2023-04-25T10:01:02;25.40;29.40
80216;DHT22;69532;37.974;23.708;2023-04-25T10:03:33;25.40;29.30
80216;DHT22;69532;37.974;23.708;2023-04-25T10:06:00;25.40;29.40
80216;DHT22;69532;37.974;23.708;2023-04-25T10:08:35;25.40;29.50
80216;DHT22;69532;37.974;23.708;2023-04-25T10:11:04;25.40;29.60
80216;DHT22;69532;37.974;23.708;2023-04-25T10:13:31;25.40;29.60
80216;DHT22;69532;37.974;23.708;2023-04-25T10:16:02;25.40;29.70
80216;DHT22;69532;37.974;23.708;2023-04-25T10:18:29;25.40;29.70
80216;DHT22;69532;37.974;23.708;2023-04-25T10:20:57;25.40;29.80
80216;DHT22;69532;37.974;23.708;2023-04-25T10:23:24;25.40;29.70
80216;DHT22;69532;37.974;23.708;2023-04-25T10:25:52;25.40;29.70
80216;DHT22;69532;37.974;23.708;2023-04-25T10:28:20;25.40;29.70
80216;DHT22;69532;37.974;23.708;2023-04-25T10:31:07;25.30;29.60
80216;DHT22;69532;37.974;23.708;2023-04-25T10:38:36;25.30;29.40
80216;DHT22;69532;37.974;23.708;2023-04-25T10:41:03;25.30;29.40
80216;DHT22;69532;37.974;23.708;2023-04-25T10:43:34;25.30;29.30
80216;DHT22;69532;37.974;23.708;2023-04-25T10:46:02;25.30;29.20
80216;DHT22;69532;37.974;23.708;2023-04-25T10:48:30;25.30;29.00
80216;DHT22;69532;37.974;23.708;2023-04-25T10:51:15;25.30;29.00
80216;DHT22;69532;37.974;23.708;2023-04-25T10:53:41;25.30;29.10
80216;DHT22;69532;37.974;23.708;2023-04-25T10:56:21;25.30;29.20
80216;DHT22;69532;37.974;23.708;2023-04-25T10:58:48;25.30;29.30
80216;DHT22;69532;37.974;23.708;2023-04-25T11:01:16;25.30;29.30
80216;DHT22;69532;37.974;23.708;2023-04-25T11:03:45;25.30;29.20
80216;DHT22;69532;37.974;23.708;2023-04-25T11:07:03;25.30;29.30
80216;DHT22;69532;37.974;23.708;2023-04-25T11:09:19;25.30;29.10
80216;DHT22;69532;37.974;23.708;2023-04-25T11:11:56;25.30;29.10
80216;DHT22;69532;37.974;23.708;2023-04-25T11:14:22;25.40;29.10
80216;DHT22;69532;37.974;23.708;2023-04-25T11:16:55;25.30;29.00
80216;DHT22;69532;37.974;23.708;2023-04-25T11:19:22;25.40;29.00
80216;DHT22;69532;37.974;23.708;2023-04-25T11:21:48;25.30;29.00
80216;DHT22;69532;37.974;23.708;2023-04-25T11:24:16;25.30;29.00
80216;DHT22;69532;37.974;23.708;2023-04-25T11:26:42;25.40;29.00
80216;DHT22;69532;37.974;23.708;2023-04-25T11:29:08;25.40;29.00
80216;DHT22;69532;37.974;23.708;2023-04-25T11:31:34;25.40;29.00
80216;DHT22;69532;37.974;23.708;2023-04-25T11:34:01;25.40;28.70
80216;DHT22;69532;37.974;23.708;2023-04-25T11:36:26;25.40;28.70
80216;DHT22;69532;37.974;23.708;2023-04-25T11:38:53;25.40;28.70
80216;DHT22;69532;37.974;23.708;2023-04-25T11:41:20;25.30;28.60
80216;DHT22;69532;37.974;23.708;2023-04-25T11:43:48;25.30;28.70
80216;DHT22;69532;37.974;23.708;2023-04-25T11:46:15;25.30;28.60
80216;DHT22;69532;37.974;23.708;2023-04-25T11:48:42;25.30;28.60
80216;DHT22;69532;37.974;23.708;2023-04-25T11:51:08;25.30;28.60
80216;DHT22;69532;37.974;23.708;2023-04-25T11:53:34;25.30;28.50
80216;DHT22;69532;37.974;23.708;2023-04-25T11:56:01;25.30;28.50
80216;DHT22;69532;37.974;23.708;2023-04-25T11:58:27;25.30;28.60
80216;DHT22;69532;37.974;23.708;2023-04-25T12:00:53;25.40;28.80
80216;DHT22;69532;37.974;23.708;2023-04-25T12:03:19;25.40;28.80
80216;DHT22;69532;37.974;23.708;2023-04-25T12:05:46;25.50;29.00
80216;DHT22;69532;37.974;23.708;2023-04-25T12:08:12;25.50;29.00
80216;DHT22;69532;37.974;23.708;2023-04-25T12:10:40;25.50;28.90
80216;DHT22;69532;37.974;23.708;2023-04-25T12:15:46;25.50;28.80
80216;DHT22;69532;37.974;23.708;2023-04-25T12:18:11;25.50;28.90
80216;DHT22;69532;37.974;23.708;2023-04-25T12:20:37;25.60;28.90
80216;DHT22;69532;37.974;23.708;2023-04-25T12:23:06;25.50;28.80
80216;DHT22;69532;37.974;23.708;2023-04-25T12:25:36;25.50;28.70
80216;DHT22;69532;37.974;23.708;2023-04-25T12:28:17;25.60;28.40
80216;DHT22;69532;37.974;23.708;2023-04-25T12:31:01;25.50;28.20
80216;DHT22;69532;37.974;23.708;2023-04-25T12:33:29;25.50;28.30
80216;DHT22;69532;37.974;23.708;2023-04-25T12:35:55;25.50;28.60
80216;DHT22;69532;37.974;23.708;2023-04-25T12:40:54;25.50;29.00
80216;DHT22;69532;37.974;23.708;2023-04-25T12:43:20;25.40;29.00
80216;DHT22;69532;37.974;23.708;2023-04-25T12:45:51;25.50;29.20
80216;DHT22;69532;37.974;23.708;2023-04-25T12:48:18;25.50;29.30
80216;DHT22;69532;37.974;23.708;2023-04-25T12:50:44;25.50;29.40
80216;DHT22;69532;37.974;23.708;2023-04-25T12:53:10;25.40;29.50
80216;DHT22;69532;37.974;23.708;2023-04-25T12:55:40;25.40;29.50
80216;DHT22;69532;37.974;23.708;2023-04-25T12:58:11;25.40;29.60
80216;DHT22;69532;37.974;23.708;2023-04-25T13:00:38;25.40;29.60
80216;DHT22;69532;37.974;23.708;2023-04-25T13:03:04;25.40;29.60
80216;DHT22;69532;37.974;23.708;2023-04-25T13:05:32;25.40;29.70
80216;DHT22;69532;37.974;23.708;2023-04-25T13:07:57;25.40;29.70
80216;DHT22;69532;37.974;23.708;2023-04-25T13:10:25;25.40;29.80
80216;DHT22;69532;37.974;23.708;2023-04-25T13:12:51;25.40;29.80
80216;DHT22;69532;37.974;23.708;2023-04-25T13:15:17;25.40;29.80
80216;DHT22;69532;37.974;23.708;2023-04-25T13:17:42;25.40;29.70
80216;DHT22;69532;37.974;23.708;2023-04-25T13:20:10;25.40;29.80
80216;DHT22;69532;37.974;23.708;2023-04-25T13:22:37;25.40;29.70
80216;DHT22;69532;37.974;23.708;2023-04-25T13:25:04;25.40;29.40
80216;DHT22;69532;37.974;23.708;2023-04-25T13:27:31;25.40;29.40
80216;DHT22;69532;37.974;23.708;2023-04-25T13:29:59;25.40;29.30
80216;DHT22;69532;37.974;23.708;2023-04-25T13:32:25;25.50;29.30
80216;DHT22;69532;37.974;23.708;2023-04-25T13:34:53;25.40;29.20
80216;DHT22;69532;37.974;23.708;2023-04-25T13:37:18;25.40;29.20
80216;DHT22;69532;37.974;23.708;2023-04-25T13:39:44;25.40;29.20
80216;DHT22;69532;37.974;23.708;2023-04-25T13:42:10;25.30;29.20
80216;DHT22;69532;37.974;23.708;2023-04-25T13:44:36;25.30;29.10
80216;DHT22;69532;37.974;23.708;2023-04-25T13:47:02;25.30;29.10
80216;DHT22;69532;37.974;23.708;2023-04-25T13:49:28;25.30;29.00
80216;DHT22;69532;37.974;23.708;2023-04-25T13:51:54;25.20;29.00
80216;DHT22;69532;37.974;23.708;2023-04-25T13:54:20;25.20;29.10
80216;DHT22;69532;37.974;23.708;2023-04-25T13:56:46;25.20;29.10
80216;DHT22;69532;37.974;23.708;2023-04-25T13:59:12;25.20;29.00
80216;DHT22;69532;37.974;23.708;2023-04-25T14:01:37;25.20;29.00
80216;DHT22;69532;37.974;23.708;2023-04-25T14:04:03;25.20;29.00
80216;DHT22;69532;37.974;23.708;2023-04-25T14:06:30;25.10;28.90
80216;DHT22;69532;37.974;23.708;2023-04-25T14:08:56;25.10;28.80
80216;DHT22;69532;37.974;23.708;2023-04-25T14:11:23;25.10;28.80
80216;DHT22;69532;37.974;23.708;2023-04-25T14:13:49;25.10;28.90
80216;DHT22;69532;37.974;23.708;2023-04-25T14:16:16;25.10;29.10
80216;DHT22;69532;37.974;23.708;2023-04-25T14:18:42;25.10;29.10
80216;DHT22;69532;37.974;23.708;2023-04-25T14:21:09;25.10;29.20
80216;DHT22;69532;37.974;23.708;2023-04-25T14:23:35;25.10;29.20
80216;DHT22;69532;37.974;23.708;2023-04-25T14:26:01;25.10;29.20
80216;DHT22;69532;37.974;23.708;2023-04-25T14:28:27;25.00;29.20
80216;DHT22;69532;37.974;23.708;2023-04-25T14:30:52;25.00;29.30
80216;DHT22;69532;37.974;23.708;2023-04-25T14:33:18;25.00;29.30
80216;DHT22;69532;37.974;23.708;2023-04-25T14:35:44;25.10;29.50
80216;DHT22;69532;37.974;23.708;2023-04-25T14:38:10;25.00;29.50
80216;DHT22;69532;37.974;23.708;2023-04-25T14:40:35;25.00;29.50
80216;DHT22;69532;37.974;23.708;2023-04-25T14:43:02;25.00;29.60
80216;DHT22;69532;37.974;23.708;2023-04-25T14:45:28;25.00;29.60
80216;DHT22;69532;37.974;23.708;2023-04-25T14:47:53;25.00;29.70
80216;DHT22;69532;37.974;23.708;2023-04-25T14:50:19;25.00;29.70
80216;DHT22;69532;37.974;23.708;2023-04-25T14:52:45;25.00;29.70
80216;DHT22;69532;37.974;23.708;2023-04-25T14:55:11;25.00;29.80
80216;DHT22;69532;37.974;23.708;2023-04-25T14:57:37;25.00;29.80
80216;DHT22;69532;37.974;23.708;2023-04-25T15:00:05;25.00;29.80
80216;DHT22;69532;37.974;23.708;2023-04-25T15:02:35;25.00;29.90
80216;DHT22;69532;37.974;23.708;2023-04-25T15:05:01;25.00;30.00
80216;DHT22;69532;37.974;23.708;2023-04-25T15:07:26;24.90;30.00
80216;DHT22;69532;37.974;23.708;2023-04-25T15:09:52;24.90;30.00
80216;DHT22;69532;37.974;23.708;2023-04-25T15:12:19;25.00;30.00
80216;DHT22;69532;37.974;23.708;2023-04-25T15:14:45;25.00;30.00
80216;DHT22;69532;37.974;23.708;2023-04-25T15:17:11;24.90;30.00
80216;DHT22;69532;37.974;23.708;2023-04-25T15:19:39;24.90;30.10
80216;DHT22;69532;37.974;23.708;2023-04-25T15:22:05;24.90;30.10
80216;DHT22;69532;37.974;23.708;2023-04-25T15:24:32;24.90;30.10